sensor_id;sensor_type;location;lat;lon;timestamp;pressure;altitude;pressure_sealevel;temperature;humidity
12215;BME280;6170;42.206;24.142;2022-12-07T00:00:53;99039.97;;;6.97;95.90
12215;BME280;6170;42.206;24.142;2022-12-07T00:03:20;99075.09;;;7.31;95.64
12215;BME280;6170;42.206;24.142;2022-12-07T00:05:47;99040.13;;;6.95;95.84
12215;BME280;6170;42.206;24.142;2022-12-07T00:08:14;99076.22;;;7.06;96.74
12215;BME280;6170;42.206;24.142;2022-12-07T00:10:41;99041.06;;;7.10;96.21
12215;BME280;6170;42.206;24.142;2022-12-07T00:13:07;99045.03;;;7.14;95.25
12215;BME280;6170;42.206;24.142;2022-12-07T00:15:36;99077.56;;;7.41;95.08
12215;BME280;6170;42.206;24.142;2022-12-07T00:18:03;99044.00;;;7.23;95.12
12215;BME280;6170;42.206;24.142;2022-12-07T00:20:29;99060.88;;;7.16;96.04
12215;BME280;6170;42.206;24.142;2022-12-07T00:22:56;99047.41;;;7.09;95.41
12215;BME280;6170;42.206;24.142;2022-12-07T00:25:23;99077.38;;;7.11;96.54
12215;BME280;6170;42.206;24.142;2022-12-07T00:27:51;99045.22;;;7.13;96.68
12215;BME280;6170;42.206;24.142;2022-12-07T00:30:18;99052.22;;;7.14;95.65
12215;BME280;6170;42.206;24.142;2022-12-07T00:32:46;99035.94;;;7.01;95.83
12215;BME280;6170;42.206;24.142;2022-12-07T00:35:13;99085.94;;;6.99;97.77
12215;BME280;6170;42.206;24.142;2022-12-07T00:37:40;99050.50;;;6.82;97.25
12215;BME280;6170;42.206;24.142;2022-12-07T00:40:08;99047.84;;;6.82;97.34
12215;BME280;6170;42.206;24.142;2022-12-07T00:42:35;99035.50;;;6.89;97.29
12215;BME280;6170;42.206;24.142;2022-12-07T00:45:02;99041.44;;;6.99;96.48
12215;BME280;6170;42.206;24.142;2022-12-07T00:47:29;99044.97;;;6.92;96.09
12215;BME280;6170;42.206;24.142;2022-12-07T00:49:57;99026.00;;;6.95;96.37
12215;BME280;6170;42.206;24.142;2022-12-07T00:52:25;99064.66;;;7.21;95.72
12215;BME280;6170;42.206;24.142;2022-12-07T00:54:52;99028.75;;;7.09;94.96
12215;BME280;6170;42.206;24.142;2022-12-07T00:57:19;99070.50;;;7.25;94.93
12215;BME280;6170;42.206;24.142;2022-12-07T00:59:46;99017.47;;;6.99;94.04
12215;BME280;6170;42.206;24.142;2022-12-07T01:02:13;99024.75;;;6.74;94.52
12215;BME280;6170;42.206;24.142;2022-12-07T01:04:40;99024.38;;;6.77;94.32
12215;BME280;6170;42.206;24.142;2022-12-07T01:07:08;99049.94;;;7.03;94.32
12215;BME280;6170;42.206;24.142;2022-12-07T01:09:35;99024.94;;;6.65;94.20
12215;BME280;6170;42.206;24.142;2022-12-07T01:12:02;99019.66;;;6.49;94.34
12215;BME280;6170;42.206;24.142;2022-12-07T01:14:29;99052.03;;;6.68;94.13
12215;BME280;6170;42.206;24.142;2022-12-07T01:16:56;99018.00;;;6.48;94.72
12215;BME280;6170;42.206;24.142;2022-12-07T01:19:23;99049.72;;;6.65;94.59
12215;BME280;6170;42.206;24.142;2022-12-07T01:21:50;99006.28;;;5.94;95.88
12215;BME280;6170;42.206;24.142;2022-12-07T01:24:18;99023.38;;;6.07;97.15
12215;BME280;6170;42.206;24.142;2022-12-07T01:26:45;99012.94;;;6.06;97.62
12215;BME280;6170;42.206;24.142;2022-12-07T01:29:15;99045.00;;;6.37;96.17
12215;BME280;6170;42.206;24.142;2022-12-07T01:31:42;99003.94;;;6.15;95.48
12215;BME280;6170;42.206;24.142;2022-12-07T01:34:09;99037.00;;;6.28;94.82
12215;BME280;6170;42.206;24.142;2022-12-07T01:36:36;99002.44;;;5.64;97.08
12215;BME280;6170;42.206;24.142;2022-12-07T01:39:05;99035.22;;;5.89;97.15
12215;BME280;6170;42.206;24.142;2022-12-07T01:41:36;99031.66;;;5.64;96.63
12215;BME280;6170;42.206;24.142;2022-12-07T01:44:10;98993.97;;;5.44;97.01
12215;BME280;6170;42.206;24.142;2022-12-07T01:46:38;99029.06;;;5.88;95.72
12215;BME280;6170;42.206;24.142;2022-12-07T01:49:07;98984.66;;;5.48;94.68
12215;BME280;6170;42.206;24.142;2022-12-07T01:51:37;98987.47;;;5.55;94.27
12215;BME280;6170;42.206;24.142;2022-12-07T01:54:07;98991.81;;;5.56;94.31
12215;BME280;6170;42.206;24.142;2022-12-07T01:56:37;99020.38;;;5.70;94.03
12215;BME280;6170;42.206;24.142;2022-12-07T01:59:05;98970.34;;;5.41;93.43
12215;BME280;6170;42.206;24.142;2022-12-07T02:01:32;99024.38;;;5.66;94.04
12215;BME280;6170;42.206;24.142;2022-12-07T02:03:59;98979.47;;;5.22;94.19
12215;BME280;6170;42.206;24.142;2022-12-07T02:06:26;98980.63;;;5.12;94.39
12215;BME280;6170;42.206;24.142;2022-12-07T02:08:53;98979.63;;;5.21;94.26
12215;BME280;6170;42.206;24.142;2022-12-07T02:11:20;99018.53;;;5.38;94.29
12215;BME280;6170;42.206;24.142;2022-12-07T02:13:49;99013.19;;;5.30;94.01
12215;BME280;6170;42.206;24.142;2022-12-07T02:16:25;98983.91;;;4.97;92.95
12215;BME280;6170;42.206;24.142;2022-12-07T02:19:14;98972.22;;;4.82;93.55
12215;BME280;6170;42.206;24.142;2022-12-07T02:21:52;98980.53;;;4.87;94.17
12215;BME280;6170;42.206;24.142;2022-12-07T02:24:35;98966.09;;;4.82;94.62
12215;BME280;6170;42.206;24.142;2022-12-07T02:27:32;98983.97;;;4.72;95.00
12215;BME280;6170;42.206;24.142;2022-12-07T02:30:04;99015.75;;;4.97;94.91
12215;BME280;6170;42.206;24.142;2022-12-07T02:32:42;98973.41;;;4.88;95.19
12215;BME280;6170;42.206;24.142;2022-12-07T02:35:12;98966.50;;;5.03;94.89
12215;BME280;6170;42.206;24.142;2022-12-07T02:37:51;98967.19;;;5.13;94.38
12215;BME280;6170;42.206;24.142;2022-12-07T02:40:33;98974.56;;;4.85;94.13
12215;BME280;6170;42.206;24.142;2022-12-07T02:43:05;98968.38;;;4.69;95.50
12215;BME280;6170;42.206;24.142;2022-12-07T02:45:35;98968.22;;;4.70;95.47
12215;BME280;6170;42.206;24.142;2022-12-07T02:48:03;98973.06;;;4.83;95.34
12215;BME280;6170;42.206;24.142;2022-12-07T02:50:32;99007.31;;;5.10;95.33
12215;BME280;6170;42.206;24.142;2022-12-07T02:52:58;98978.84;;;4.78;95.03
12215;BME280;6170;42.206;24.142;2022-12-07T02:55:29;99006.94;;;4.89;95.13
12215;BME280;6170;42.206;24.142;2022-12-07T02:58:03;99009.16;;;4.60;94.99
12215;BME280;6170;42.206;24.142;2022-12-07T03:00:43;98963.44;;;4.06;95.53
12215;BME280;6170;42.206;24.142;2022-12-07T03:03:13;98960.06;;;4.30;95.17
12215;BME280;6170;42.206;24.142;2022-12-07T03:05:59;98948.97;;;4.34;95.96
12215;BME280;6170;42.206;24.142;2022-12-07T03:08:38;98993.41;;;4.66;95.18
12215;BME280;6170;42.206;24.142;2022-12-07T03:11:11;98952.19;;;4.38;95.10
12215;BME280;6170;42.206;24.142;2022-12-07T03:13:41;98941.22;;;4.33;95.44
12215;BME280;6170;42.206;24.142;2022-12-07T03:16:15;98989.03;;;4.49;95.78
12215;BME280;6170;42.206;24.142;2022-12-07T03:18:46;98959.22;;;4.29;96.19
12215;BME280;6170;42.206;24.142;2022-12-07T03:21:16;98957.16;;;4.07;95.30
12215;BME280;6170;42.206;24.142;2022-12-07T03:23:46;98926.81;;;3.76;95.77
12215;BME280;6170;42.206;24.142;2022-12-07T03:26:17;98954.28;;;4.00;95.83
12215;BME280;6170;42.206;24.142;2022-12-07T03:28:50;98990.94;;;4.39;95.63
12215;BME280;6170;42.206;24.142;2022-12-07T03:31:22;98945.56;;;4.16;95.19
12215;BME280;6170;42.206;24.142;2022-12-07T03:33:57;98948.91;;;4.18;95.20
12215;BME280;6170;42.206;24.142;2022-12-07T03:36:30;98950.59;;;4.19;95.18
12215;BME280;6170;42.206;24.142;2022-12-07T03:39:03;98947.00;;;4.02;95.11
12215;BME280;6170;42.206;24.142;2022-12-07T03:41:34;98938.88;;;4.04;95.18
12215;BME280;6170;42.206;24.142;2022-12-07T03:44:03;98956.59;;;4.03;95.32
12215;BME280;6170;42.206;24.142;2022-12-07T03:46:37;98946.84;;;4.04;95.01
12215;BME280;6170;42.206;24.142;2022-12-07T03:49:14;98947.31;;;3.99;95.44
12215;BME280;6170;42.206;24.142;2022-12-07T03:51:49;98947.31;;;3.99;95.12
12215;BME280;6170;42.206;24.142;2022-12-07T03:54:20;98968.28;;;4.11;94.76
12215;BME280;6170;42.206;24.142;2022-12-07T03:56:50;98943.25;;;3.87;94.84
12215;BME280;6170;42.206;24.142;2022-12-07T03:59:19;98979.66;;;4.29;95.22
12215;BME280;6170;42.206;24.142;2022-12-07T04:01:53;98936.09;;;3.80;95.12
12215;BME280;6170;42.206;24.142;2022-12-07T04:04:21;98974.19;;;4.04;95.17
12215;BME280;6170;42.206;24.142;2022-12-07T04:06:48;98935.72;;;4.00;96.06
12215;BME280;6170;42.206;24.142;2022-12-07T04:09:15;98941.75;;;4.11;95.41
12215;BME280;6170;42.206;24.142;2022-12-07T04:11:42;98932.03;;;3.93;95.21
12215;BME280;6170;42.206;24.142;2022-12-07T04:14:09;98941.81;;;3.93;95.46
12215;BME280;6170;42.206;24.142;2022-12-07T04:16:45;98948.47;;;3.97;96.47
12215;BME280;6170;42.206;24.142;2022-12-07T04:19:14;98935.41;;;4.03;97.34
12215;BME280;6170;42.206;24.142;2022-12-07T04:21:41;98977.22;;;4.43;96.79
12215;BME280;6170;42.206;24.142;2022-12-07T04:24:08;98933.53;;;4.30;96.41
12215;BME280;6170;42.206;24.142;2022-12-07T04:26:35;98958.19;;;4.56;95.74
12215;BME280;6170;42.206;24.142;2022-12-07T04:29:02;98931.38;;;4.25;95.98
12215;BME280;6170;42.206;24.142;2022-12-07T04:31:29;98933.22;;;4.25;95.44
12215;BME280;6170;42.206;24.142;2022-12-07T04:33:56;98929.19;;;4.21;94.91
12215;BME280;6170;42.206;24.142;2022-12-07T04:36:24;98934.38;;;3.96;95.67
12215;BME280;6170;42.206;24.142;2022-12-07T04:38:52;98929.81;;;4.06;95.10
12215;BME280;6170;42.206;24.142;2022-12-07T04:41:19;98929.81;;;4.06;95.02
12215;BME280;6170;42.206;24.142;2022-12-07T04:43:52;98941.94;;;4.17;94.71
12215;BME280;6170;42.206;24.142;2022-12-07T04:46:19;98960.66;;;4.41;94.44
12215;BME280;6170;42.206;24.142;2022-12-07T04:48:46;98958.16;;;4.48;94.51
12215;BME280;6170;42.206;24.142;2022-12-07T04:51:13;98962.84;;;4.54;94.33
12215;BME280;6170;42.206;24.142;2022-12-07T04:53:42;98927.31;;;4.47;94.23
12215;BME280;6170;42.206;24.142;2022-12-07T04:56:09;98928.94;;;4.32;94.86
12215;BME280;6170;42.206;24.142;2022-12-07T04:58:35;98935.53;;;4.28;95.95
12215;BME280;6170;42.206;24.142;2022-12-07T05:01:02;98943.97;;;4.23;95.97
12215;BME280;6170;42.206;24.142;2022-12-07T05:03:29;98943.19;;;4.39;95.24
12215;BME280;6170;42.206;24.142;2022-12-07T05:05:56;98943.22;;;4.47;95.06
12215;BME280;6170;42.206;24.142;2022-12-07T05:08:23;98942.22;;;4.40;94.70
12215;BME280;6170;42.206;24.142;2022-12-07T05:10:51;98950.22;;;4.48;94.65
12215;BME280;6170;42.206;24.142;2022-12-07T05:13:18;98984.94;;;4.63;95.04
12215;BME280;6170;42.206;24.142;2022-12-07T05:15:46;98950.22;;;4.56;94.65
12215;BME280;6170;42.206;24.142;2022-12-07T05:18:13;98950.22;;;4.48;94.56
12215;BME280;6170;42.206;24.142;2022-12-07T05:20:41;98944.41;;;4.44;94.76
12215;BME280;6170;42.206;24.142;2022-12-07T05:23:08;98944.88;;;4.40;94.33
12215;BME280;6170;42.206;24.142;2022-12-07T05:25:35;98941.69;;;4.28;94.50
12215;BME280;6170;42.206;24.142;2022-12-07T05:28:04;98952.78;;;4.32;94.49
12215;BME280;6170;42.206;24.142;2022-12-07T05:30:31;98946.41;;;4.17;94.39
12215;BME280;6170;42.206;24.142;2022-12-07T05:32:58;98960.50;;;4.17;94.39
12215;BME280;6170;42.206;24.142;2022-12-07T05:35:25;98963.84;;;4.19;93.29
12215;BME280;6170;42.206;24.142;2022-12-07T05:37:52;98953.59;;;3.98;94.44
12215;BME280;6170;42.206;24.142;2022-12-07T05:40:19;98961.88;;;4.29;94.64
12215;BME280;6170;42.206;24.142;2022-12-07T05:42:46;98965.84;;;4.25;94.55
12215;BME280;6170;42.206;24.142;2022-12-07T05:45:14;98957.88;;;4.25;94.63
12215;BME280;6170;42.206;24.142;2022-12-07T05:47:41;98963.22;;;3.99;94.77
12215;BME280;6170;42.206;24.142;2022-12-07T05:50:08;98991.25;;;4.28;94.85
12215;BME280;6170;42.206;24.142;2022-12-07T05:52:35;98955.44;;;3.98;95.63
12215;BME280;6170;42.206;24.142;2022-12-07T05:55:02;98950.19;;;4.06;95.20
12215;BME280;6170;42.206;24.142;2022-12-07T05:57:28;98949.03;;;3.83;95.35
12215;BME280;6170;42.206;24.142;2022-12-07T05:59:55;98947.00;;;3.77;95.87
12215;BME280;6170;42.206;24.142;2022-12-07T06:02:22;98985.34;;;3.90;95.70
12215;BME280;6170;42.206;24.142;2022-12-07T06:04:49;98954.44;;;3.73;95.67
12215;BME280;6170;42.206;24.142;2022-12-07T06:07:17;98985.72;;;3.95;96.01
12215;BME280;6170;42.206;24.142;2022-12-07T06:09:44;98956.19;;;3.65;96.58
12215;BME280;6170;42.206;24.142;2022-12-07T06:12:11;98987.72;;;3.93;96.22
12215;BME280;6170;42.206;24.142;2022-12-07T06:14:55;98963.84;;;3.93;95.85
12215;BME280;6170;42.206;24.142;2022-12-07T06:17:24;98980.44;;;4.29;96.03
12215;BME280;6170;42.206;24.142;2022-12-07T06:19:51;98983.53;;;4.42;95.58
12215;BME280;6170;42.206;24.142;2022-12-07T06:22:18;98947.53;;;4.40;96.15
12215;BME280;6170;42.206;24.142;2022-12-07T06:24:44;98966.72;;;4.68;95.11
12215;BME280;6170;42.206;24.142;2022-12-07T06:27:11;98953.75;;;4.65;95.39
12215;BME280;6170;42.206;24.142;2022-12-07T06:29:38;98948.06;;;5.10;95.65
12215;BME280;6170;42.206;24.142;2022-12-07T06:32:05;98948.94;;;5.34;94.67
12215;BME280;6170;42.206;24.142;2022-12-07T06:34:34;98986.19;;;5.91;93.31
12215;BME280;6170;42.206;24.142;2022-12-07T06:37:01;98949.59;;;5.93;92.55
12215;BME280;6170;42.206;24.142;2022-12-07T06:39:29;98987.72;;;6.49;91.78
12215;BME280;6170;42.206;24.142;2022-12-07T06:41:56;98935.31;;;7.11;89.65
12215;BME280;6170;42.206;24.142;2022-12-07T06:44:23;98971.34;;;7.30;88.16
12215;BME280;6170;42.206;24.142;2022-12-07T06:46:51;98948.47;;;7.35;87.84
12215;BME280;6170;42.206;24.142;2022-12-07T06:49:18;98949.38;;;6.97;89.76
12215;BME280;6170;42.206;24.142;2022-12-07T06:51:46;98970.84;;;6.64;91.54
12215;BME280;6170;42.206;24.142;2022-12-07T06:54:14;98990.91;;;6.83;92.04
12215;BME280;6170;42.206;24.142;2022-12-07T06:56:41;98970.09;;;6.87;90.93
12215;BME280;6170;42.206;24.142;2022-12-07T06:59:08;98959.44;;;6.87;91.04
12215;BME280;6170;42.206;24.142;2022-12-07T07:01:36;98958.69;;;7.01;91.75
12215;BME280;6170;42.206;24.142;2022-12-07T07:04:03;98969.81;;;7.12;91.88
12215;BME280;6170;42.206;24.142;2022-12-07T07:06:30;98956.91;;;7.47;90.76
12215;BME280;6170;42.206;24.142;2022-12-07T07:08:58;98992.50;;;7.77;90.42
12215;BME280;6170;42.206;24.142;2022-12-07T07:11:25;98951.19;;;7.50;90.89
12215;BME280;6170;42.206;24.142;2022-12-07T07:13:52;98983.56;;;7.70;91.06
12215;BME280;6170;42.206;24.142;2022-12-07T07:16:19;98951.69;;;8.05;89.33
12215;BME280;6170;42.206;24.142;2022-12-07T07:18:46;98984.34;;;8.60;87.59
12215;BME280;6170;42.206;24.142;2022-12-07T07:21:12;98959.09;;;8.77;87.20
12215;BME280;6170;42.206;24.142;2022-12-07T07:23:39;98966.09;;;9.50;85.24
12215;BME280;6170;42.206;24.142;2022-12-07T07:26:07;98971.91;;;9.17;85.47
12215;BME280;6170;42.206;24.142;2022-12-07T07:28:34;98960.47;;;8.87;86.52
12215;BME280;6170;42.206;24.142;2022-12-07T07:31:01;98957.63;;;9.25;85.08
12215;BME280;6170;42.206;24.142;2022-12-07T07:33:28;98976.16;;;9.12;86.17
12215;BME280;6170;42.206;24.142;2022-12-07T07:35:55;98964.56;;;9.19;86.03
12215;BME280;6170;42.206;24.142;2022-12-07T07:38:21;98992.13;;;9.62;84.74
12215;BME280;6170;42.206;24.142;2022-12-07T07:40:48;98964.38;;;8.70;86.66
12215;BME280;6170;42.206;24.142;2022-12-07T07:43:16;98958.50;;;8.96;86.11
12215;BME280;6170;42.206;24.142;2022-12-07T07:45:44;98962.09;;;9.03;85.42
12215;BME280;6170;42.206;24.142;2022-12-07T07:48:11;98966.25;;;9.06;85.01
12215;BME280;6170;42.206;24.142;2022-12-07T07:50:39;98991.56;;;9.24;85.57
12215;BME280;6170;42.206;24.142;2022-12-07T07:53:06;98957.63;;;9.25;84.35
12215;BME280;6170;42.206;24.142;2022-12-07T07:55:33;98992.13;;;9.41;84.24
12215;BME280;6170;42.206;24.142;2022-12-07T07:58:00;98951.31;;;9.32;83.09
12215;BME280;6170;42.206;24.142;2022-12-07T08:00:28;98963.53;;;9.63;82.56
12215;BME280;6170;42.206;24.142;2022-12-07T08:02:55;98986.81;;;10.11;83.16
12215;BME280;6170;42.206;24.142;2022-12-07T08:05:22;98968.03;;;9.83;82.47
12215;BME280;6170;42.206;24.142;2022-12-07T08:07:49;98958.53;;;10.02;81.27
12215;BME280;6170;42.206;24.142;2022-12-07T08:10:16;98959.41;;;10.37;82.14
12215;BME280;6170;42.206;24.142;2022-12-07T08:12:43;98956.06;;;10.28;81.64
12215;BME280;6170;42.206;24.142;2022-12-07T08:15:30;98984.91;;;10.61;79.77
12215;BME280;6170;42.206;24.142;2022-12-07T08:17:57;98928.91;;;10.04;79.90
12215;BME280;6170;42.206;24.142;2022-12-07T08:20:24;98956.28;;;10.68;78.64
12215;BME280;6170;42.206;24.142;2022-12-07T08:22:51;98956.34;;;10.81;76.33
12215;BME280;6170;42.206;24.142;2022-12-07T08:25:18;98947.53;;;10.94;76.47
12215;BME280;6170;42.206;24.142;2022-12-07T08:27:46;98952.09;;;9.97;81.08
12215;BME280;6170;42.206;24.142;2022-12-07T08:30:13;98951.75;;;10.62;78.95
12215;BME280;6170;42.206;24.142;2022-12-07T08:32:41;98958.41;;;10.79;77.95
12215;BME280;6170;42.206;24.142;2022-12-07T08:35:09;98960.22;;;10.72;77.90
12215;BME280;6170;42.206;24.142;2022-12-07T08:37:36;98946.28;;;10.90;75.94
12215;BME280;6170;42.206;24.142;2022-12-07T08:40:03;98937.16;;;11.32;73.22
12215;BME280;6170;42.206;24.142;2022-12-07T08:42:31;98941.63;;;10.64;75.50
12215;BME280;6170;42.206;24.142;2022-12-07T08:45:04;98936.69;;;10.61;75.20
12215;BME280;6170;42.206;24.142;2022-12-07T08:47:32;98948.47;;;10.66;74.68
12215;BME280;6170;42.206;24.142;2022-12-07T08:50:01;98935.13;;;10.86;73.16
12215;BME280;6170;42.206;24.142;2022-12-07T08:52:29;98946.63;;;11.34;73.67
12215;BME280;6170;42.206;24.142;2022-12-07T08:54:56;98930.63;;;10.93;74.27
12215;BME280;6170;42.206;24.142;2022-12-07T08:57:24;98963.47;;;11.76;74.15
12215;BME280;6170;42.206;24.142;2022-12-07T08:59:51;98921.28;;;11.56;73.38
12215;BME280;6170;42.206;24.142;2022-12-07T09:02:18;98955.34;;;11.62;74.85
12215;BME280;6170;42.206;24.142;2022-12-07T09:04:45;98926.66;;;11.63;74.54
12215;BME280;6170;42.206;24.142;2022-12-07T09:07:13;98889.72;;;11.78;70.77
12215;BME280;6170;42.206;24.142;2022-12-07T09:09:40;98907.50;;;11.79;71.79
12215;BME280;6170;42.206;24.142;2022-12-07T09:12:07;98937.66;;;12.07;72.16
12215;BME280;6170;42.206;24.142;2022-12-07T09:14:34;98924.41;;;12.19;72.96
12215;BME280;6170;42.206;24.142;2022-12-07T09:17:08;98894.47;;;11.83;72.60
12215;BME280;6170;42.206;24.142;2022-12-07T09:19:36;98933.47;;;12.25;72.48
12215;BME280;6170;42.206;24.142;2022-12-07T09:22:03;98936.13;;;12.44;70.86
12215;BME280;6170;42.206;24.142;2022-12-07T09:24:32;98909.09;;;12.90;70.52
12215;BME280;6170;42.206;24.142;2022-12-07T09:26:59;98897.56;;;12.06;70.34
12215;BME280;6170;42.206;24.142;2022-12-07T09:29:26;98893.03;;;11.93;71.81
12215;BME280;6170;42.206;24.142;2022-12-07T09:31:53;98876.63;;;12.28;72.09
12215;BME280;6170;42.206;24.142;2022-12-07T09:34:20;98910.16;;;11.92;70.99
12215;BME280;6170;42.206;24.142;2022-12-07T09:36:47;98881.47;;;11.93;69.68
12215;BME280;6170;42.206;24.142;2022-12-07T09:39:13;98870.91;;;11.91;72.48
12215;BME280;6170;42.206;24.142;2022-12-07T09:41:43;98865.25;;;12.39;72.49
12215;BME280;6170;42.206;24.142;2022-12-07T09:44:14;98862.41;;;12.14;70.17
12215;BME280;6170;42.206;24.142;2022-12-07T09:46:42;98866.75;;;12.08;70.42
12215;BME280;6170;42.206;24.142;2022-12-07T09:49:12;98865.34;;;11.86;72.85
12215;BME280;6170;42.206;24.142;2022-12-07T09:51:41;98861.59;;;12.00;69.96
12215;BME280;6170;42.206;24.142;2022-12-07T09:54:11;98899.63;;;12.10;68.62
12215;BME280;6170;42.206;24.142;2022-12-07T09:56:39;98860.16;;;12.11;71.62
12215;BME280;6170;42.206;24.142;2022-12-07T09:59:13;98860.19;;;11.91;70.85
12215;BME280;6170;42.206;24.142;2022-12-07T10:01:41;98853.31;;;12.08;70.49
12215;BME280;6170;42.206;24.142;2022-12-07T10:04:11;98868.97;;;12.38;71.55
12215;BME280;6170;42.206;24.142;2022-12-07T10:06:40;98858.16;;;12.95;70.80
12215;BME280;6170;42.206;24.142;2022-12-07T10:09:12;98849.47;;;13.00;67.24
12215;BME280;6170;42.206;24.142;2022-12-07T10:11:57;98895.25;;;12.87;67.63
12215;BME280;6170;42.206;24.142;2022-12-07T10:14:28;98887.84;;;12.05;70.89
12215;BME280;6170;42.206;24.142;2022-12-07T10:16:55;98861.88;;;12.50;71.78
12215;BME280;6170;42.206;24.142;2022-12-07T10:19:25;98851.00;;;12.32;71.91
12215;BME280;6170;42.206;24.142;2022-12-07T10:22:10;98853.59;;;11.94;71.22
12215;BME280;6170;42.206;24.142;2022-12-07T10:24:38;98855.44;;;11.47;71.91
12215;BME280;6170;42.206;24.142;2022-12-07T10:27:17;98839.53;;;11.19;73.08
12215;BME280;6170;42.206;24.142;2022-12-07T10:29:50;98882.66;;;11.51;73.47
12215;BME280;6170;42.206;24.142;2022-12-07T10:32:32;98850.22;;;11.00;74.91
12215;BME280;6170;42.206;24.142;2022-12-07T10:35:21;98843.44;;;11.17;74.44
12215;BME280;6170;42.206;24.142;2022-12-07T10:37:48;98880.41;;;11.28;73.85
12215;BME280;6170;42.206;24.142;2022-12-07T10:40:32;98845.50;;;11.08;73.67
12215;BME280;6170;42.206;24.142;2022-12-07T10:43:01;98852.31;;;11.17;74.05
12215;BME280;6170;42.206;24.142;2022-12-07T10:45:30;98886.09;;;10.99;74.28
12215;BME280;6170;42.206;24.142;2022-12-07T10:48:02;98842.97;;;10.87;74.00
12215;BME280;6170;42.206;24.142;2022-12-07T10:50:58;98874.78;;;11.10;73.89
12215;BME280;6170;42.206;24.142;2022-12-07T10:53:48;98874.19;;;11.14;75.76
12215;BME280;6170;42.206;24.142;2022-12-07T10:56:44;98836.22;;;11.17;74.51
12215;BME280;6170;42.206;24.142;2022-12-07T10:59:19;98861.41;;;11.56;75.76
12215;BME280;6170;42.206;24.142;2022-12-07T11:01:57;98829.19;;;11.69;72.65
12215;BME280;6170;42.206;24.142;2022-12-07T11:04:32;98816.41;;;11.71;73.88
12215;BME280;6170;42.206;24.142;2022-12-07T11:07:06;98810.41;;;11.89;72.49
12215;BME280;6170;42.206;24.142;2022-12-07T11:09:57;98800.72;;;11.94;72.33
12215;BME280;6170;42.206;24.142;2022-12-07T11:12:41;98799.69;;;11.89;73.38
12215;BME280;6170;42.206;24.142;2022-12-07T11:15:15;98798.03;;;12.45;71.24
12215;BME280;6170;42.206;24.142;2022-12-07T11:17:49;98824.84;;;12.58;68.06
12215;BME280;6170;42.206;24.142;2022-12-07T11:20:31;98785.63;;;12.44;68.81
12215;BME280;6170;42.206;24.142;2022-12-07T11:23:04;98787.88;;;11.96;70.75
12215;BME280;6170;42.206;24.142;2022-12-07T11:25:43;98779.06;;;11.76;70.18
12215;BME280;6170;42.206;24.142;2022-12-07T11:28:28;98804.63;;;12.49;69.34
12215;BME280;6170;42.206;24.142;2022-12-07T11:31:05;98752.81;;;11.85;69.20
12215;BME280;6170;42.206;24.142;2022-12-07T11:33:43;98756.16;;;11.54;69.38
12215;BME280;6170;42.206;24.142;2022-12-07T11:36:24;98802.97;;;11.91;70.36
12215;BME280;6170;42.206;24.142;2022-12-07T11:39:00;98766.69;;;12.26;70.94
12215;BME280;6170;42.206;24.142;2022-12-07T11:41:29;98772.75;;;12.08;70.12
12215;BME280;6170;42.206;24.142;2022-12-07T11:44:00;98778.13;;;12.08;68.08
12215;BME280;6170;42.206;24.142;2022-12-07T11:46:40;98763.59;;;11.25;71.00
12215;BME280;6170;42.206;24.142;2022-12-07T11:49:16;98760.72;;;10.94;72.15
12215;BME280;6170;42.206;24.142;2022-12-07T11:51:46;98792.47;;;11.43;71.81
12215;BME280;6170;42.206;24.142;2022-12-07T11:54:16;98746.50;;;11.13;71.79
12215;BME280;6170;42.206;24.142;2022-12-07T11:56:47;98737.78;;;10.72;72.39
12215;BME280;6170;42.206;24.142;2022-12-07T11:59:19;98746.69;;;10.92;72.64
12215;BME280;6170;42.206;24.142;2022-12-07T12:01:53;98786.50;;;11.08;72.69
12215;BME280;6170;42.206;24.142;2022-12-07T12:04:34;98743.16;;;10.85;73.62
12215;BME280;6170;42.206;24.142;2022-12-07T12:07:06;98740.69;;;10.90;72.57
12215;BME280;6170;42.206;24.142;2022-12-07T12:09:35;98779.28;;;11.22;72.49
12215;BME280;6170;42.206;24.142;2022-12-07T12:12:29;98725.84;;;10.68;72.87
12215;BME280;6170;42.206;24.142;2022-12-07T12:15:13;98737.38;;;10.68;72.95
12215;BME280;6170;42.206;24.142;2022-12-07T12:18:12;98725.47;;;10.97;72.36
12215;BME280;6170;42.206;24.142;2022-12-07T12:20:49;98729.34;;;10.81;73.13
12215;BME280;6170;42.206;24.142;2022-12-07T12:23:20;98769.97;;;10.85;73.50
12215;BME280;6170;42.206;24.142;2022-12-07T12:25:49;98720.88;;;10.52;74.71
12215;BME280;6170;42.206;24.142;2022-12-07T12:28:24;98714.50;;;10.66;73.30
12215;BME280;6170;42.206;24.142;2022-12-07T12:31:12;98688.72;;;10.71;73.78
12215;BME280;6170;42.206;24.142;2022-12-07T12:33:43;98721.72;;;10.98;72.84
12215;BME280;6170;42.206;24.142;2022-12-07T12:36:25;98720.28;;;10.96;73.35
12215;BME280;6170;42.206;24.142;2022-12-07T12:39:09;98760.72;;;10.88;75.16
12215;BME280;6170;42.206;24.142;2022-12-07T12:41:53;98720.69;;;10.86;73.00
12215;BME280;6170;42.206;24.142;2022-12-07T12:44:41;98721.69;;;10.59;73.95
12215;BME280;6170;42.206;24.142;2022-12-07T12:47:41;98757.59;;;10.77;73.74
12215;BME280;6170;42.206;24.142;2022-12-07T12:50:30;98714.72;;;10.64;73.64
12215;BME280;6170;42.206;24.142;2022-12-07T12:53:12;98719.06;;;10.78;74.38
12215;BME280;6170;42.206;24.142;2022-12-07T12:58:43;98703.56;;;10.94;73.77
12215;BME280;6170;42.206;24.142;2022-12-07T13:01:44;98727.06;;;10.59;74.96
12215;BME280;6170;42.206;24.142;2022-12-07T13:04:24;98712.59;;;10.33;75.31
12215;BME280;6170;42.206;24.142;2022-12-07T13:06:52;98724.41;;;10.65;74.50
12215;BME280;6170;42.206;24.142;2022-12-07T13:09:23;98760.09;;;10.79;74.53
12215;BME280;6170;42.206;24.142;2022-12-07T13:12:00;98722.13;;;10.56;74.80
12215;BME280;6170;42.206;24.142;2022-12-07T13:14:56;98756.56;;;10.72;75.02
12215;BME280;6170;42.206;24.142;2022-12-07T13:18:00;98757.56;;;10.51;75.86
12215;BME280;6170;42.206;24.142;2022-12-07T13:20:43;98712.63;;;10.47;75.39
12215;BME280;6170;42.206;24.142;2022-12-07T13:23:12;98709.72;;;10.42;75.71
12215;BME280;6170;42.206;24.142;2022-12-07T13:25:46;98714.06;;;10.43;75.41
12215;BME280;6170;42.206;24.142;2022-12-07T13:28:17;98711.97;;;10.45;75.62
12215;BME280;6170;42.206;24.142;2022-12-07T13:30:58;98709.72;;;10.42;75.82